createdAt,value
2018-12-30T00:02:32.230Z,8.00
2018-12-30T00:08:18.786Z,8.10
2018-12-30T00:11:19.503Z,8.20
2018-12-30T00:17:05.711Z,8.00
2018-12-30T00:22:51.447Z,8.10
2018-12-30T00:28:37.275Z,8.10
2018-12-30T00:31:38.434Z,8.00
2018-12-30T00:37:23.335Z,8.10
2018-12-30T00:43:08.965Z,8.00
2018-12-30T00:48:55.459Z,7.90
2018-12-30T00:51:56.595Z,8.00
2018-12-30T00:57:42.488Z,8.00
2018-12-30T01:03:28.074Z,7.90
2018-12-30T01:09:13.008Z,8.00
2018-12-30T01:12:14.613Z,8.00
2018-12-30T01:18:01.242Z,8.00
2018-12-30T01:23:46.180Z,8.10
2018-12-30T01:26:46.685Z,8.10
2018-12-30T01:29:48.490Z,8.10
2018-12-30T01:32:50.010Z,8.10
2018-12-30T01:38:35.483Z,8.10
2018-12-30T01:44:20.819Z,8.10
2018-12-30T01:50:06.651Z,8.00
2018-12-30T01:53:07.915Z,8.10
2018-12-30T01:58:54.027Z,8.00
2018-12-30T02:04:39.388Z,8.00
2018-12-30T02:10:25.930Z,8.00
2018-12-30T02:13:27.327Z,7.90
2018-12-30T02:19:12.950Z,7.90
2018-12-30T02:24:58.542Z,7.90
2018-12-30T02:30:43.904Z,7.90
2018-12-30T02:33:45.496Z,7.90
2018-12-30T02:39:31.153Z,7.80
2018-12-30T02:45:17.470Z,7.80
2018-12-30T02:51:03.080Z,7.80
2018-12-30T02:56:49.583Z,7.80
2018-12-30T02:59:50.861Z,7.80
2018-12-30T03:05:36.551Z,7.70
2018-12-30T03:08:37.040Z,7.70
2018-12-30T03:11:38.458Z,7.70
2018-12-30T03:17:24.135Z,7.70
2018-12-30T03:23:09.370Z,7.60
2018-12-30T03:28:54.785Z,7.60
2018-12-30T03:31:56.369Z,7.60
2018-12-30T03:37:41.927Z,7.50
2018-12-30T03:43:27.854Z,7.50
2018-12-30T03:49:12.490Z,7.60
2018-12-30T03:54:58.346Z,7.60
2018-12-30T04:00:43.711Z,7.60
2018-12-30T04:06:30.471Z,7.60
2018-12-30T04:12:41.987Z,7.60
2018-12-30T04:15:43.540Z,7.60
2018-12-30T04:21:30.061Z,7.60
2018-12-30T04:27:14.853Z,7.60
2018-12-30T04:30:16.319Z,7.50
2018-12-30T04:36:01.939Z,7.70
2018-12-30T04:41:43.031Z,7.70
2018-12-30T04:47:28.519Z,7.70
2018-12-30T04:50:29.551Z,7.60
2018-12-30T04:56:15.682Z,7.60
2018-12-30T05:02:01.470Z,7.60
2018-12-30T05:07:47.067Z,7.70
2018-12-30T05:13:32.475Z,7.60
2018-12-30T05:16:33.722Z,7.60
2018-12-30T05:22:20.111Z,7.60
2018-12-30T05:28:05.428Z,7.50
2018-12-30T05:33:51.710Z,7.60
2018-12-30T05:36:52.987Z,7.60
2018-12-30T05:42:39.530Z,7.60
2018-12-30T05:48:25.890Z,7.60
2018-12-30T05:54:06.658Z,7.60
2018-12-30T05:57:08.223Z,7.50
2018-12-30T06:02:53.796Z,7.60
2018-12-30T06:08:39.286Z,7.50
2018-12-30T06:14:24.100Z,7.60
2018-12-30T06:17:25.247Z,7.60
2018-12-30T06:23:11.726Z,7.60
2018-12-30T06:28:57.670Z,7.70
2018-12-30T06:34:43.591Z,7.60
2018-12-30T06:37:44.811Z,7.70
2018-12-30T06:43:29.727Z,7.70
2018-12-30T06:49:15.324Z,7.70
2018-12-30T06:55:00.011Z,7.60
2018-12-30T06:58:01.147Z,7.60
2018-12-30T07:03:46.094Z,7.70
2018-12-30T07:09:32.572Z,7.70
2018-12-30T07:15:18.276Z,7.80
2018-12-30T07:18:19.558Z,7.80
2018-12-30T07:24:06.002Z,7.80
2018-12-30T07:29:51.805Z,7.80
2018-12-30T07:35:37.653Z,7.80
2018-12-30T07:38:38.731Z,7.70
2018-12-30T07:44:25.238Z,7.60
2018-12-30T07:50:10.851Z,7.60
2018-12-30T07:55:56.330Z,7.70
2018-12-30T07:58:57.642Z,7.60
2018-12-30T08:04:42.662Z,7.70
2018-12-30T08:07:44.848Z,7.70
2018-12-30T08:10:46.774Z,7.70
2018-12-30T08:16:32.531Z,7.70
2018-12-30T08:19:33.819Z,7.70
2018-12-30T08:25:19.612Z,7.80
2018-12-30T08:31:06.264Z,7.80
2018-12-30T08:36:51.254Z,7.90
2018-12-30T08:39:52.434Z,7.90
2018-12-30T08:45:38.213Z,7.90
2018-12-30T08:51:24.742Z,7.90
2018-12-30T08:57:10.375Z,8.00
2018-12-30T09:00:11.898Z,8.00
2018-12-30T09:05:57.531Z,7.90
2018-12-30T09:11:42.366Z,8.00
2018-12-30T09:17:27.088Z,8.00
2018-12-30T09:20:27.663Z,8.00
2018-12-30T09:26:13.542Z,8.10
2018-12-30T09:31:58.810Z,8.20
2018-12-30T09:37:44.685Z,8.10
2018-12-30T09:40:46.284Z,8.20
2018-12-30T09:46:31.799Z,8.30
2018-12-30T09:52:16.860Z,8.30
2018-12-30T09:58:03.869Z,8.30
2018-12-30T10:01:04.791Z,8.40
2018-12-30T10:06:50.522Z,8.40
2018-12-30T10:12:36.022Z,8.50
2018-12-30T10:18:22.242Z,8.40
2018-12-30T10:21:23.582Z,8.50
2018-12-30T10:28:03.448Z,8.50
2018-12-30T10:33:49.850Z,8.50
2018-12-30T10:36:51.219Z,8.50
2018-12-30T10:42:37.018Z,8.50
2018-12-30T10:48:23.196Z,8.50
2018-12-30T10:54:09.020Z,8.50
2018-12-30T10:57:10.302Z,8.40
2018-12-30T11:02:55.381Z,8.60
2018-12-30T11:08:40.834Z,8.60
2018-12-30T11:14:27.459Z,8.60
2018-12-30T11:17:29.003Z,8.70
2018-12-30T11:23:14.814Z,8.60
2018-12-30T11:28:55.227Z,8.80
2018-12-30T11:34:41.035Z,8.90
2018-12-30T11:37:42.766Z,8.90
2018-12-30T11:43:28.511Z,8.80
2018-12-30T11:49:14.259Z,8.80
2018-12-30T11:54:59.842Z,8.90
2018-12-30T11:58:01.367Z,8.90
2018-12-30T12:03:46.688Z,8.90
2018-12-30T12:09:32.914Z,8.90
2018-12-30T12:15:13.612Z,9.10
2018-12-30T12:21:00.069Z,9.00
2018-12-30T12:24:01.551Z,9.00
2018-12-30T12:29:46.948Z,8.90
2018-12-30T12:35:33.166Z,9.00
2018-12-30T12:41:19.242Z,9.00
2018-12-30T12:44:20.659Z,9.00
2018-12-30T12:50:07.426Z,9.00
2018-12-30T12:55:52.923Z,9.10
2018-12-30T13:01:39.203Z,9.00
2018-12-30T13:04:39.913Z,9.10
2018-12-30T13:10:26.263Z,9.00
2018-12-30T13:16:12.932Z,9.00
2018-12-30T13:22:04.439Z,9.00
2018-12-30T13:25:05.810Z,9.00
2018-12-30T13:30:51.420Z,8.90
2018-12-30T13:36:36.981Z,8.90
2018-12-30T13:42:22.430Z,8.90
2018-12-30T13:45:23.923Z,8.80
2018-12-30T13:51:09.558Z,9.00
2018-12-30T13:56:56.959Z,8.90
2018-12-30T14:02:43.283Z,9.00
2018-12-30T14:08:29.489Z,8.90
2018-12-30T14:11:30.087Z,8.80
2018-12-30T14:17:15.650Z,8.90
2018-12-30T14:23:01.402Z,8.80
2018-12-30T14:28:48.975Z,8.90
2018-12-30T14:34:34.395Z,9.00
2018-12-30T14:40:20.755Z,8.90
2018-12-30T14:46:06.959Z,8.90
2018-12-30T14:49:08.639Z,8.80
2018-12-30T14:54:53.386Z,8.80
2018-12-30T15:00:39.055Z,8.80
2018-12-30T15:06:24.975Z,8.70
2018-12-30T15:12:09.628Z,8.70
2018-12-30T15:17:56.199Z,8.60
2018-12-30T15:20:57.515Z,8.70
2018-12-30T15:26:43.993Z,8.70
2018-12-30T15:32:32.372Z,8.70
2018-12-30T15:38:17.942Z,8.70
2018-12-30T15:44:02.559Z,8.60
2018-12-30T15:47:03.651Z,8.60
2018-12-30T15:52:49.318Z,8.60
2018-12-30T15:58:34.130Z,8.50
2018-12-30T16:04:19.172Z,8.60
2018-12-30T16:10:05.767Z,8.50
2018-12-30T16:13:07.362Z,8.60
2018-12-30T16:18:53.936Z,8.60
2018-12-30T16:24:39.486Z,8.60
2018-12-30T16:30:25.219Z,8.60
2018-12-30T16:33:26.532Z,8.50
2018-12-30T16:39:12.444Z,8.60
2018-12-30T16:42:12.994Z,8.70
2018-12-30T16:45:13.536Z,8.60
2018-12-30T16:48:15.006Z,8.60
2018-12-30T16:51:15.867Z,8.60
2018-12-30T16:54:16.433Z,8.60
2018-12-30T17:00:02.974Z,8.60
2018-12-30T17:05:48.934Z,8.70
2018-12-30T17:08:50.082Z,8.60
2018-12-30T17:11:50.739Z,8.60
2018-12-30T17:14:51.527Z,8.60
2018-12-30T17:20:37.187Z,8.50
2018-12-30T17:26:22.707Z,8.60
2018-12-30T17:32:07.488Z,8.60
2018-12-30T17:35:09.052Z,8.60
2018-12-30T17:41:01.472Z,8.60
2018-12-30T17:46:42.426Z,8.40
2018-12-30T17:49:43.640Z,8.50
2018-12-30T17:52:44.658Z,8.50
2018-12-30T17:55:50.786Z,8.40
2018-12-30T18:01:32.807Z,8.40
2018-12-30T18:07:19.138Z,8.50
2018-12-30T18:13:04.835Z,8.40
2018-12-30T18:16:05.910Z,8.40
2018-12-30T18:21:51.730Z,8.50
2018-12-30T18:27:37.430Z,8.40
2018-12-30T18:33:22.724Z,8.40
2018-12-30T18:36:28.946Z,8.40
2018-12-30T18:42:14.524Z,8.40
2018-12-30T18:48:00.307Z,8.30
2018-12-30T18:51:02.742Z,8.40
2018-12-30T18:54:03.566Z,8.40
2018-12-30T18:57:04.130Z,8.40
2018-12-30T19:00:04.407Z,8.40
2018-12-30T19:03:04.947Z,8.30
2018-12-30T19:08:50.457Z,8.20
2018-12-30T19:11:51.639Z,8.20
2018-12-30T19:17:38.737Z,8.30
2018-12-30T19:23:25.277Z,8.30
2018-12-30T19:29:11.144Z,8.30
2018-12-30T19:32:12.396Z,8.20
2018-12-30T19:37:57.977Z,8.20
2018-12-30T19:43:43.633Z,8.20
2018-12-30T19:49:30.053Z,8.20
2018-12-30T19:52:31.118Z,8.20
2018-12-30T19:58:16.049Z,8.20
2018-12-30T20:04:00.763Z,8.10
2018-12-30T20:09:45.618Z,8.20
2018-12-30T20:12:47.139Z,8.10
2018-12-30T20:18:32.659Z,8.20
2018-12-30T20:24:17.435Z,8.10
2018-12-30T20:30:03.587Z,8.10
2018-12-30T20:33:06.538Z,8.10
2018-12-30T20:36:08.088Z,8.20
2018-12-30T20:39:09.610Z,8.10
2018-12-30T20:44:55.151Z,8.10
2018-12-30T20:50:41.731Z,8.20
2018-12-30T20:53:42.974Z,8.10
2018-12-30T20:59:27.921Z,8.00
2018-12-30T21:05:13.679Z,8.10
2018-12-30T21:10:59.457Z,8.20
2018-12-30T21:14:00.874Z,8.10
2018-12-30T21:19:46.771Z,8.10
2018-12-30T21:25:31.606Z,8.20
2018-12-30T21:31:17.510Z,8.00
2018-12-30T21:37:03.123Z,8.20
2018-12-30T21:42:48.905Z,8.20
2018-12-30T21:45:49.523Z,8.20
2018-12-30T21:51:35.668Z,8.20
2018-12-30T21:57:21.075Z,8.20
2018-12-30T22:00:22.366Z,8.00
2018-12-30T22:03:23.335Z,8.10
2018-12-30T22:09:09.065Z,8.10
2018-12-30T22:14:54.789Z,8.10
2018-12-30T22:17:56.131Z,8.10
2018-12-30T22:23:41.947Z,8.20
2018-12-30T22:29:28.411Z,8.20
2018-12-30T22:35:13.699Z,8.20
2018-12-30T22:41:04.845Z,8.20
2018-12-30T22:44:06.324Z,8.20
2018-12-30T22:49:52.118Z,8.30
2018-12-30T22:55:37.425Z,8.30
2018-12-30T23:01:23.898Z,8.30
2018-12-30T23:04:25.363Z,8.30
2018-12-30T23:10:12.054Z,8.30
2018-12-30T23:15:56.739Z,8.30
2018-12-30T23:21:42.399Z,8.30
2018-12-30T23:24:44.877Z,8.20
2018-12-30T23:30:30.650Z,8.20
2018-12-30T23:36:16.102Z,8.20
2018-12-30T23:42:01.615Z,8.20
2018-12-30T23:45:03.177Z,8.20
2018-12-30T23:50:49.191Z,8.20
2018-12-30T23:53:51.566Z,8.20
2018-12-30T23:56:52.501Z,8.20
2018-12-30T23:59:54.047Z,8.20
